Time;durP1;ratioP1;P1;durP2;ratioP2;P2;SDS_P1;SDS_P2;PMS_P1;PMS_P2;Temp;Humidity;BMP_temperature;BMP_pressure;BME280_temperature;BME280_humidity;BME280_pressure;Samples;Min_cycle;Max_cycle;Signal;HPM_P1;HPM_P2
2022/02/22 00:02:25;;;;;;;158.10;65.97;;;;;;;;;;5062130;28;20486;-90
2022/02/22 00:04:51;;;;;;;159.77;67.20;;;;;;;;;;5063373;28;20472;-91
2022/02/22 00:07:18;;;;;;;149.73;63.77;;;;;;;;;;5064205;28;20460;-90
2022/02/22 00:09:44;;;;;;;153.20;65.83;;;;;;;;;;5064740;28;20450;-91
2022/02/22 00:12:11;;;;;;;159.03;66.10;;;;;;;;;;5064499;28;20981;-91
2022/02/22 00:14:37;;;;;;;164.37;68.97;;;;;;;;;;5064557;28;20458;-90
2022/02/22 00:17:05;;;;;;;156.77;65.93;;;;;;;;;;5063926;28;20466;-90
2022/02/22 00:19:32;;;;;;;165.40;68.97;;;;;;;;;;5064450;28;20454;-91
2022/02/22 00:21:58;;;;;;;170.63;68.83;;;;;;;;;;5063758;28;20496;-89
2022/02/22 00:24:25;;;;;;;170.83;69.10;;;;;;;;;;5063692;28;20524;-91
2022/02/22 00:26:51;;;;;;;255.27;75.93;;;;;;;;;;5063655;28;20457;-91
2022/02/22 00:29:18;;;;;;;160.07;70.47;;;;;;;;;;5064231;28;20465;-90
2022/02/22 00:31:44;;;;;;;156.17;67.87;;;;;;;;;;5063549;28;20473;-90
2022/02/22 00:34:12;;;;;;;159.00;72.30;;;;;;;;;;5062199;28;20474;-89
2022/02/22 00:36:39;;;;;;;156.37;69.57;;;;;;;;;;5061411;28;20469;-90
2022/02/22 00:39:06;;;;;;;155.10;68.30;;;;;;;;;;5063999;28;20477;-91
2022/02/22 00:41:32;;;;;;;151.23;65.97;;;;;;;;;;5064299;28;20450;-92
2022/02/22 00:43:59;;;;;;;152.10;67.07;;;;;;;;;;5064379;28;20506;-91
2022/02/22 00:46:25;;;;;;;154.60;66.60;;;;;;;;;;5065089;28;20463;-93
2022/02/22 00:48:52;;;;;;;154.47;66.50;;;;;;;;;;5062735;28;20446;-95
2022/02/22 00:51:20;;;;;;;173.33;70.53;;;;;;;;;;5061906;28;20478;-91
2022/02/22 00:53:46;;;;;;;165.87;68.60;;;;;;;;;;5064376;28;20450;-90
2022/02/22 00:56:12;;;;;;;168.47;71.13;;;;;;;;;;5064182;28;20450;-91
2022/02/22 00:58:39;;;;;;;169.93;71.50;;;;;;;;;;5062018;28;21170;-91
2022/02/22 01:01:06;;;;;;;167.77;70.47;;;;;;;;;;5062015;28;20446;-91
2022/02/22 01:03:32;;;;;;;177.87;72.97;;;;;;;;;;5061797;28;21008;-90
2022/02/22 01:05:59;;;;;;;167.97;69.97;;;;;;;;;;5062178;28;20475;-91
2022/02/22 01:08:26;;;;;;;174.10;69.40;;;;;;;;;;5062907;28;20474;-91
2022/02/22 01:10:53;;;;;;;168.17;69.37;;;;;;;;;;5064010;28;20505;-91
2022/02/22 01:13:21;;;;;;;164.93;68.30;;;;;;;;;;5060547;28;20490;-92
2022/02/22 01:15:48;;;;;;;176.30;73.67;;;;;;;;;;5062020;28;20435;-90
2022/02/22 01:18:15;;;;;;;187.20;74.43;;;;;;;;;;5063135;28;20451;-90
2022/02/22 01:20:42;;;;;;;186.40;72.40;;;;;;;;;;5063949;28;20470;-90
2022/02/22 01:23:08;;;;;;;189.03;75.93;;;;;;;;;;5063060;28;20481;-96
2022/02/22 01:25:36;;;;;;;185.43;71.53;;;;;;;;;;5062300;28;20462;-91
2022/02/22 01:28:02;;;;;;;197.77;75.30;;;;;;;;;;5062662;28;20500;-93
2022/02/22 01:30:29;;;;;;;192.00;74.00;;;;;;;;;;5061827;28;20483;-90
2022/02/22 01:32:55;;;;;;;193.77;74.47;;;;;;;;;;5060802;28;21240;-92
2022/02/22 01:35:22;;;;;;;202.40;76.20;;;;;;;;;;5055848;28;20510;-92
2022/02/22 01:37:48;;;;;;;270.83;80.83;;;;;;;;;;5048060;28;20464;-90
2022/02/22 01:40:15;;;;;;;209.50;74.60;;;;;;;;;;5060409;28;21303;-90
2022/02/22 01:42:43;;;;;;;215.23;73.77;;;;;;;;;;5062630;28;20504;-93
2022/02/22 01:45:10;;;;;;;245.80;78.77;;;;;;;;;;5062455;28;20462;-93
2022/02/22 01:47:36;;;;;;;223.57;74.97;;;;;;;;;;5061796;28;20458;-96
2022/02/22 01:50:03;;;;;;;236.50;76.37;;;;;;;;;;5060914;28;20485;-94
2022/02/22 01:52:30;;;;;;;349.65;92.47;;;;;;;;;;5061772;28;20446;-95
2022/02/22 01:54:56;;;;;;;251.97;78.50;;;;;;;;;;5062285;28;20339;-92
2022/02/22 01:57:24;;;;;;;535.72;105.95;;;;;;;;;;5062348;28;20470;-96
2022/02/22 01:59:53;;;;;;;549.30;97.80;;;;;;;;;;5062704;28;20213;-92
2022/02/22 02:02:19;;;;;;;364.73;84.07;;;;;;;;;;5062227;28;20663;-92
2022/02/22 02:04:46;;;;;;;381.45;87.47;;;;;;;;;;5062721;28;20354;-92
2022/02/22 02:07:12;;;;;;;439.35;100.00;;;;;;;;;;5062487;28;20204;-90
2022/02/22 02:09:39;;;;;;;436.95;97.00;;;;;;;;;;5043045;28;20204;-91
2022/02/22 02:12:06;;;;;;;426.50;100.90;;;;;;;;;;5043084;28;20205;-90
2022/02/22 02:14:32;;;;;;;403.90;89.55;;;;;;;;;;5060215;28;20200;-93
2022/02/22 02:17:00;;;;;;;446.23;103.32;;;;;;;;;;5060592;28;20200;-90
2022/02/22 02:19:27;;;;;;;412.20;91.60;;;;;;;;;;5060373;28;20207;-92
2022/02/22 02:21:58;;;;;;;389.70;87.70;;;;;;;;;;5060893;28;20216;-90
2022/02/22 02:24:25;;;;;;;384.42;94.55;;;;;;;;;;5061163;28;20224;-93
2022/02/22 02:26:52;;;;;;;374.65;87.80;;;;;;;;;;5061718;28;20702;-90
2022/02/22 02:29:21;;;;;;;351.45;85.75;;;;;;;;;;5061591;28;20254;-93
2022/02/22 02:31:48;;;;;;;337.38;82.47;;;;;;;;;;5060827;28;20204;-90
2022/02/22 02:34:15;;;;;;;364.35;85.80;;;;;;;;;;5060621;28;20207;-91
2022/02/22 02:36:43;;;;;;;360.95;85.20;;;;;;;;;;5061523;28;20200;-91
2022/02/22 02:39:12;;;;;;;372.92;79.85;;;;;;;;;;5062351;28;20218;-91
2022/02/22 02:41:38;;;;;;;442.10;97.03;;;;;;;;;;5062541;28;20242;-92
2022/02/22 02:44:06;;;;;;;381.52;90.32;;;;;;;;;;5060623;28;20269;-91
2022/02/22 02:46:33;;;;;;;374.65;85.55;;;;;;;;;;5059788;28;20199;-94
2022/02/22 02:48:59;;;;;;;347.35;85.35;;;;;;;;;;5064026;28;20227;-91
2022/02/22 02:51:26;;;;;;;403.25;92.18;;;;;;;;;;5060420;28;20203;-92
2022/02/22 02:53:53;;;;;;;388.50;89.47;;;;;;;;;;5060591;28;20204;-92
2022/02/22 02:56:22;;;;;;;390.75;92.50;;;;;;;;;;5060071;28;20200;-91
2022/02/22 02:58:49;;;;;;;348.67;88.20;;;;;;;;;;5059537;28;20200;-91
2022/02/22 03:01:16;;;;;;;257.75;77.75;;;;;;;;;;5060213;28;20200;-92
2022/02/22 03:03:42;;;;;;;294.08;79.53;;;;;;;;;;5061125;28;20228;-92
2022/02/22 03:06:08;;;;;;;291.05;80.65;;;;;;;;;;5062244;28;20231;-91
2022/02/22 03:08:35;;;;;;;294.38;82.78;;;;;;;;;;5060826;28;20196;-91
2022/02/22 03:11:02;;;;;;;283.20;78.82;;;;;;;;;;5060960;28;20230;-91
2022/02/22 03:13:29;;;;;;;244.27;73.90;;;;;;;;;;5059665;28;20196;-92
2022/02/22 03:15:56;;;;;;;240.82;74.32;;;;;;;;;;5059991;28;20581;-91
2022/02/22 03:18:22;;;;;;;235.45;73.13;;;;;;;;;;5060247;28;20200;-91
2022/02/22 03:20:49;;;;;;;273.42;80.05;;;;;;;;;;5059558;28;20234;-91
2022/02/22 03:23:16;;;;;;;243.05;73.07;;;;;;;;;;5061070;28;20231;-91
2022/02/22 03:25:43;;;;;;;229.00;73.43;;;;;;;;;;5061807;28;20200;-91
2022/02/22 03:28:09;;;;;;;241.70;74.72;;;;;;;;;;5060477;28;20188;-92
2022/02/22 03:30:38;;;;;;;245.77;75.75;;;;;;;;;;5060480;28;20285;-91
2022/02/22 03:33:05;;;;;;;290.20;82.47;;;;;;;;;;5060552;28;20295;-91
2022/02/22 03:35:32;;;;;;;299.83;86.22;;;;;;;;;;5060365;28;20262;-91
2022/02/22 03:37:58;;;;;;;277.25;81.43;;;;;;;;;;5059045;28;20208;-91
2022/02/22 03:40:24;;;;;;;298.58;82.13;;;;;;;;;;5059960;28;20269;-91
2022/02/22 03:42:51;;;;;;;269.80;79.15;;;;;;;;;;5060416;28;20200;-91
2022/02/22 03:45:18;;;;;;;290.52;78.55;;;;;;;;;;5041247;28;20236;-90
2022/02/22 03:47:46;;;;;;;370.88;87.38;;;;;;;;;;5045425;28;20204;-91
2022/02/22 03:50:13;;;;;;;430.20;93.72;;;;;;;;;;5058695;28;20295;-91
2022/02/22 03:52:40;;;;;;;402.70;86.15;;;;;;;;;;5058883;28;20196;-91
2022/02/22 03:55:07;;;;;;;344.50;82.47;;;;;;;;;;5060293;28;20217;-91
2022/02/22 03:57:34;;;;;;;325.65;80.05;;;;;;;;;;5060717;28;20627;-90
2022/02/22 04:00:01;;;;;;;221.32;69.72;;;;;;;;;;5060767;28;20299;-90
2022/02/22 04:02:27;;;;;;;347.83;82.53;;;;;;;;;;5060645;28;20273;-90
2022/02/22 04:04:55;;;;;;;338.55;82.70;;;;;;;;;;5059395;28;20249;-91
2022/02/22 04:07:22;;;;;;;243.13;71.50;;;;;;;;;;5060549;28;20262;-91
2022/02/22 04:09:48;;;;;;;247.90;74.03;;;;;;;;;;5060070;28;20204;-90
2022/02/22 04:12:17;;;;;;;222.73;70.63;;;;;;;;;;5061291;28;20231;-90
2022/02/22 04:14:43;;;;;;;261.40;73.20;;;;;;;;;;5060359;28;20204;-90
2022/02/22 04:17:10;;;;;;;338.15;82.22;;;;;;;;;;5060546;28;20196;-90
2022/02/22 04:19:36;;;;;;;344.88;77.55;;;;;;;;;;5061039;28;20254;-90
2022/02/22 04:22:04;;;;;;;373.80;84.72;;;;;;;;;;5060649;28;20330;-90
2022/02/22 04:24:31;;;;;;;232.15;72.50;;;;;;;;;;5059004;28;20258;-91
2022/02/22 04:26:57;;;;;;;319.30;80.50;;;;;;;;;;5057813;28;20227;-90
2022/02/22 04:29:25;;;;;;;328.02;82.10;;;;;;;;;;5058816;28;20893;-91
2022/02/22 04:31:51;;;;;;;415.83;91.75;;;;;;;;;;5059602;28;20207;-91
2022/02/22 04:34:17;;;;;;;246.40;71.78;;;;;;;;;;5058923;28;20235;-91
2022/02/22 04:36:44;;;;;;;231.05;70.60;;;;;;;;;;5059191;28;20227;-91
2022/02/22 04:39:12;;;;;;;233.40;72.80;;;;;;;;;;5059881;28;20192;-92
2022/02/22 04:41:38;;;;;;;216.35;67.82;;;;;;;;;;5059577;28;20261;-90
2022/02/22 04:44:05;;;;;;;247.63;73.63;;;;;;;;;;5059688;28;20265;-89
2022/02/22 04:46:31;;;;;;;332.75;81.78;;;;;;;;;;5060736;28;20359;-91
2022/02/22 04:48:58;;;;;;;429.02;91.45;;;;;;;;;;5064530;28;20200;-89
2022/02/22 04:51:25;;;;;;;426.00;88.30;;;;;;;;;;5064606;28;20230;-90
2022/02/22 04:53:51;;;;;;;344.73;84.63;;;;;;;;;;5063925;28;20200;-90
2022/02/22 04:56:19;;;;;;;317.50;80.53;;;;;;;;;;5063906;28;20230;-89
2022/02/22 04:58:46;;;;;;;276.20;80.97;;;;;;;;;;5062419;28;20207;-90
2022/02/22 05:01:13;;;;;;;421.42;95.30;;;;;;;;;;5063275;28;20240;-91
2022/02/22 05:03:39;;;;;;;410.08;87.10;;;;;;;;;;5063009;28;20601;-90
2022/02/22 05:06:06;;;;;;;422.23;93.75;;;;;;;;;;5063004;28;20207;-90
2022/02/22 05:08:32;;;;;;;393.63;84.70;;;;;;;;;;5064197;28;20204;-91
2022/02/22 05:10:59;;;;;;;303.27;81.18;;;;;;;;;;5063834;28;20196;-90
2022/02/22 05:13:27;;;;;;;439.15;96.32;;;;;;;;;;5062967;28;20222;-91
2022/02/22 05:15:53;;;;;;;415.27;93.75;;;;;;;;;;5055767;28;20219;-92
2022/02/22 05:18:19;;;;;;;437.65;94.93;;;;;;;;;;5073732;28;20203;-92
2022/02/22 05:20:55;;;;;;;405.27;88.93;;;;;;;;;;5064613;28;20200;-91
2022/02/22 05:23:21;;;;;;;353.00;88.28;;;;;;;;;;5063691;28;20204;-90
2022/02/22 05:25:48;;;;;;;413.42;93.05;;;;;;;;;;5063342;28;20274;-90
2022/02/22 05:28:14;;;;;;;393.35;86.43;;;;;;;;;;5064031;28;20247;-92
2022/02/22 05:30:42;;;;;;;372.63;86.57;;;;;;;;;;5063283;28;20236;-93
2022/02/22 05:33:09;;;;;;;326.90;84.72;;;;;;;;;;5070586;28;20211;-91
2022/02/22 05:35:35;;;;;;;413.52;94.15;;;;;;;;;;5063110;28;20620;-91
2022/02/22 05:38:03;;;;;;;375.08;88.47;;;;;;;;;;5063534;28;20258;-92
2022/02/22 05:40:29;;;;;;;331.65;81.00;;;;;;;;;;5062869;28;20641;-91
2022/02/22 05:42:55;;;;;;;382.98;88.80;;;;;;;;;;5062720;28;20210;-90
2022/02/22 05:45:22;;;;;;;341.92;87.25;;;;;;;;;;5057535;28;20254;-91
2022/02/22 05:47:50;;;;;;;330.33;85.72;;;;;;;;;;5047210;28;20261;-91
2022/02/22 05:50:16;;;;;;;372.08;90.65;;;;;;;;;;5061004;28;20196;-91
2022/02/22 05:52:43;;;;;;;432.35;92.72;;;;;;;;;;5062294;28;20208;-91
2022/02/22 05:55:09;;;;;;;342.92;84.43;;;;;;;;;;5062145;28;20196;-91
2022/02/22 05:57:38;;;;;;;343.95;87.90;;;;;;;;;;5062335;28;20619;-91
2022/02/22 06:00:05;;;;;;;361.65;87.78;;;;;;;;;;5059885;28;20620;-91
2022/02/22 06:02:32;;;;;;;269.33;79.82;;;;;;;;;;5060996;28;20196;-90
2022/02/22 06:05:00;;;;;;;249.35;77.22;;;;;;;;;;5060244;28;20224;-91
2022/02/22 06:07:27;;;;;;;243.02;79.03;;;;;;;;;;5060694;28;20196;-92
2022/02/22 06:09:54;;;;;;;243.67;79.57;;;;;;;;;;5060760;28;20964;-92
2022/02/22 06:12:20;;;;;;;242.25;76.78;;;;;;;;;;5061446;28;20516;-90
2022/02/22 06:14:47;;;;;;;247.18;77.43;;;;;;;;;;5062828;28;20270;-90
2022/02/22 06:17:13;;;;;;;245.77;78.13;;;;;;;;;;5062523;28;20204;-91
2022/02/22 06:19:40;;;;;;;253.38;81.03;;;;;;;;;;5061689;28;20196;-90
2022/02/22 06:22:08;;;;;;;254.67;79.93;;;;;;;;;;5061699;28;20229;-90
2022/02/22 06:24:35;;;;;;;257.00;79.25;;;;;;;;;;5059701;28;20544;-91
2022/02/22 06:27:01;;;;;;;240.63;76.72;;;;;;;;;;5060576;28;20208;-94
2022/02/22 06:29:27;;;;;;;246.03;81.17;;;;;;;;;;5061654;28;20196;-94
2022/02/22 06:31:54;;;;;;;237.20;80.45;;;;;;;;;;5061508;28;21019;-96
2022/02/22 06:34:20;;;;;;;258.97;91.27;;;;;;;;;;5056706;28;20341;-93
2022/02/22 06:36:47;;;;;;;274.92;90.95;;;;;;;;;;5043782;28;20509;-95
2022/02/22 06:39:15;;;;;;;265.77;89.67;;;;;;;;;;5043416;28;20219;-94
2022/02/22 06:41:41;;;;;;;248.20;84.50;;;;;;;;;;5050983;28;20452;-94
2022/02/22 06:44:08;;;;;;;250.37;86.17;;;;;;;;;;5041647;28;20578;-94
2022/02/22 06:46:34;;;;;;;244.40;86.67;;;;;;;;;;5061172;28;20450;-94
2022/02/22 06:49:01;;;;;;;241.93;83.23;;;;;;;;;;5060261;28;20940;-93
2022/02/22 06:51:27;;;;;;;251.52;86.47;;;;;;;;;;5059640;28;20446;-93
2022/02/22 06:53:54;;;;;;;243.30;80.80;;;;;;;;;;5050668;28;20204;-94
2022/02/22 06:56:22;;;;;;;240.37;79.17;;;;;;;;;;5059608;28;20516;-94
2022/02/22 06:58:50;;;;;;;254.27;82.50;;;;;;;;;;5055503;28;20467;-94
2022/02/22 07:01:16;;;;;;;270.58;82.72;;;;;;;;;;5061116;28;20446;-93
2022/02/22 07:03:43;;;;;;;270.55;80.80;;;;;;;;;;5066564;28;20199;-94
2022/02/22 07:06:10;;;;;;;278.77;81.28;;;;;;;;;;5060575;28;20287;-94
2022/02/22 07:08:36;;;;;;;260.73;79.17;;;;;;;;;;5060460;28;20234;-93
2022/02/22 07:11:03;;;;;;;255.00;80.30;;;;;;;;;;5060239;28;20447;-94
2022/02/22 07:13:29;;;;;;;250.30;81.27;;;;;;;;;;5061128;28;20474;-93
2022/02/22 07:15:57;;;;;;;260.63;82.80;;;;;;;;;;5049021;28;20537;-93
2022/02/22 07:18:24;;;;;;;306.15;89.40;;;;;;;;;;5050761;28;20519;-94
2022/02/22 07:20:51;;;;;;;280.10;87.13;;;;;;;;;;5059297;28;20200;-93
2022/02/22 07:23:17;;;;;;;275.80;85.17;;;;;;;;;;5057858;28;20461;-94
2022/02/22 07:25:44;;;;;;;280.50;91.07;;;;;;;;;;5056323;28;20482;-93
2022/02/22 07:28:11;;;;;;;290.80;89.53;;;;;;;;;;5058759;28;20453;-95
2022/02/22 07:30:38;;;;;;;277.47;87.83;;;;;;;;;;5060041;28;20482;-95
2022/02/22 07:33:05;;;;;;;277.80;89.20;;;;;;;;;;5058729;28;21033;-94
2022/02/22 07:35:32;;;;;;;289.13;91.43;;;;;;;;;;5047794;28;20473;-95
2022/02/22 07:37:59;;;;;;;289.60;88.83;;;;;;;;;;5057193;28;20447;-95
2022/02/22 07:40:25;;;;;;;287.67;87.33;;;;;;;;;;5059762;28;20451;-96
2022/02/22 07:42:53;;;;;;;292.77;88.33;;;;;;;;;;5059676;28;20455;-95
2022/02/22 07:45:19;;;;;;;304.67;94.67;;;;;;;;;;5057121;28;20521;-95
2022/02/22 07:47:45;;;;;;;311.50;93.20;;;;;;;;;;5058355;28;20455;-95
2022/02/22 07:50:13;;;;;;;308.17;94.23;;;;;;;;;;5058180;28;20496;-95
2022/02/22 07:52:40;;;;;;;314.43;91.87;;;;;;;;;;5061234;28;20454;-95
2022/02/22 07:55:07;;;;;;;324.73;88.77;;;;;;;;;;5059697;28;20462;-94
2022/02/22 07:57:33;;;;;;;374.48;96.38;;;;;;;;;;5060204;28;20496;-95
2022/02/22 08:00:00;;;;;;;416.63;100.70;;;;;;;;;;5059351;28;20192;-96
2022/02/22 08:02:27;;;;;;;424.40;103.25;;;;;;;;;;5057690;28;20212;-96
2022/02/22 08:04:53;;;;;;;408.58;100.95;;;;;;;;;;5055676;28;20285;-94
2022/02/22 08:07:21;;;;;;;424.45;109.85;;;;;;;;;;5056788;28;20208;-94
2022/02/22 08:09:48;;;;;;;412.35;108.53;;;;;;;;;;5055064;28;20200;-96
2022/02/22 08:12:15;;;;;;;394.75;102.20;;;;;;;;;;5039651;28;20204;-95
2022/02/22 08:14:41;;;;;;;403.27;104.05;;;;;;;;;;5039819;28;20200;-95
2022/02/22 08:17:08;;;;;;;379.92;93.35;;;;;;;;;;5051867;28;20231;-94
2022/02/22 08:19:35;;;;;;;379.45;95.43;;;;;;;;;;5057751;28;20196;-95
2022/02/22 08:22:01;;;;;;;370.55;95.57;;;;;;;;;;5060373;28;20226;-95
2022/02/22 08:24:29;;;;;;;377.05;98.63;;;;;;;;;;5062814;28;20200;-95
2022/02/22 08:26:57;;;;;;;366.60;97.07;;;;;;;;;;5063982;28;20982;-94
2022/02/22 08:29:24;;;;;;;366.88;95.55;;;;;;;;;;5053642;28;20668;-95
2022/02/22 08:31:51;;;;;;;362.10;98.97;;;;;;;;;;5061339;28;20200;-94
2022/02/22 08:34:18;;;;;;;357.17;96.90;;;;;;;;;;5061432;28;20534;-94
2022/02/22 08:36:44;;;;;;;331.57;88.43;;;;;;;;;;5057518;28;20439;-95
2022/02/22 08:39:11;;;;;;;336.33;91.37;;;;;;;;;;5044947;28;20455;-95
2022/02/22 08:41:39;;;;;;;329.77;89.67;;;;;;;;;;5046445;28;20447;-95
2022/02/22 08:44:06;;;;;;;331.87;90.97;;;;;;;;;;5044120;28;20486;-93
2022/02/22 08:46:32;;;;;;;329.60;91.27;;;;;;;;;;5057066;28;20560;-94
2022/02/22 08:48:59;;;;;;;334.90;94.53;;;;;;;;;;5061868;28;20450;-96
2022/02/22 08:51:25;;;;;;;334.93;92.80;;;;;;;;;;5061098;28;20430;-95
2022/02/22 08:53:52;;;;;;;337.83;92.87;;;;;;;;;;5050580;28;20493;-95
2022/02/22 08:56:18;;;;;;;344.47;93.17;;;;;;;;;;5055440;28;20466;-95
2022/02/22 08:58:46;;;;;;;342.83;92.67;;;;;;;;;;5064252;28;21029;-95
2022/02/22 09:01:12;;;;;;;338.40;91.17;;;;;;;;;;5063994;28;20446;-94
2022/02/22 09:03:39;;;;;;;343.50;91.30;;;;;;;;;;5064096;28;20621;-95
2022/02/22 09:06:05;;;;;;;341.40;95.77;;;;;;;;;;5063638;28;20501;-95
2022/02/22 09:08:32;;;;;;;263.90;86.43;;;;;;;;;;5062526;28;20473;-95
2022/02/22 09:10:59;;;;;;;257.80;83.33;;;;;;;;;;5061322;28;21027;-95
2022/02/22 09:13:25;;;;;;;260.20;83.17;;;;;;;;;;5062875;28;20446;-94
2022/02/22 09:15:53;;;;;;;256.50;80.07;;;;;;;;;;5063279;28;20439;-96
2022/02/22 09:18:20;;;;;;;253.23;83.50;;;;;;;;;;5063313;28;20449;-96
2022/02/22 09:20:47;;;;;;;257.40;85.37;;;;;;;;;;5059917;28;20454;-96
2022/02/22 09:23:14;;;;;;;251.97;85.63;;;;;;;;;;5062035;28;20535;-95
2022/02/22 09:25:40;;;;;;;240.30;78.70;;;;;;;;;;5062848;28;20505;-96
2022/02/22 09:28:08;;;;;;;230.77;75.87;;;;;;;;;;5053663;28;20463;-95
2022/02/22 09:30:35;;;;;;;235.27;78.47;;;;;;;;;;5046354;28;20565;-96
2022/02/22 09:33:03;;;;;;;232.13;79.03;;;;;;;;;;5059724;28;20517;-95
2022/02/22 09:35:30;;;;;;;227.57;77.70;;;;;;;;;;5063055;28;20462;-95
2022/02/22 09:37:56;;;;;;;234.57;78.67;;;;;;;;;;5063301;28;20469;-96
2022/02/22 09:40:23;;;;;;;226.23;78.20;;;;;;;;;;5048632;28;20443;-96
2022/02/22 09:42:50;;;;;;;224.13;79.70;;;;;;;;;;5064655;28;20446;-95
2022/02/22 09:45:17;;;;;;;227.03;83.03;;;;;;;;;;5067685;28;20466;-96
2022/02/22 09:47:44;;;;;;;225.87;80.40;;;;;;;;;;5047973;28;20478;-95
2022/02/22 09:50:12;;;;;;;218.73;79.10;;;;;;;;;;5061176;28;20492;-94
2022/02/22 09:52:39;;;;;;;224.37;78.90;;;;;;;;;;5043725;28;20448;-95
2022/02/22 09:55:06;;;;;;;227.37;80.87;;;;;;;;;;5046555;28;20447;-96
2022/02/22 09:57:33;;;;;;;219.87;79.00;;;;;;;;;;5060678;28;20450;-95
2022/02/22 10:00:05;;;;;;;221.13;75.97;;;;;;;;;;5065695;28;20438;-96
2022/02/22 10:02:38;;;;;;;222.07;81.40;;;;;;;;;;5067621;28;20473;-96
2022/02/22 10:05:13;;;;;;;215.47;78.20;;;;;;;;;;5062780;28;20455;-96
2022/02/22 10:07:47;;;;;;;215.57;77.63;;;;;;;;;;5062505;28;20942;-96
2022/02/22 10:10:13;;;;;;;213.57;78.37;;;;;;;;;;5062878;28;20508;-94
2022/02/22 10:12:39;;;;;;;216.10;78.70;;;;;;;;;;5062207;28;20451;-94
2022/02/22 10:15:07;;;;;;;213.10;76.10;;;;;;;;;;5062865;28;20557;-96
2022/02/22 10:17:35;;;;;;;223.47;78.57;;;;;;;;;;5064562;28;20501;-96
2022/02/22 10:20:03;;;;;;;215.10;76.73;;;;;;;;;;5056949;28;21130;-96
2022/02/22 10:22:31;;;;;;;215.07;79.90;;;;;;;;;;5062017;28;20454;-96
2022/02/22 10:25:11;;;;;;;215.77;81.63;;;;;;;;;;5050395;28;20443;-96
2022/02/22 10:27:41;;;;;;;212.50;78.83;;;;;;;;;;5059538;28;20505;-94
2022/02/22 10:30:23;;;;;;;215.27;80.20;;;;;;;;;;5061586;28;20707;-94
2022/02/22 10:32:49;;;;;;;221.60;84.60;;;;;;;;;;5060887;28;20455;-95
2022/02/22 10:35:26;;;;;;;212.10;80.30;;;;;;;;;;5059259;28;20455;-94
2022/02/22 10:37:54;;;;;;;218.47;82.73;;;;;;;;;;5059959;28;20453;-95
2022/02/22 10:40:24;;;;;;;215.77;82.27;;;;;;;;;;5059278;28;20451;-95
2022/02/22 10:42:51;;;;;;;216.37;80.00;;;;;;;;;;5061243;28;20446;-95
2022/02/22 10:45:18;;;;;;;210.03;80.47;;;;;;;;;;5061626;28;20477;-96
2022/02/22 10:47:47;;;;;;;209.37;79.50;;;;;;;;;;5061000;28;20877;-94
2022/02/22 10:50:15;;;;;;;211.60;81.10;;;;;;;;;;5059322;28;20485;-96
2022/02/22 10:52:42;;;;;;;208.00;79.07;;;;;;;;;;5061740;28;20451;-94
2022/02/22 10:55:10;;;;;;;202.70;77.00;;;;;;;;;;5062390;28;20447;-95
2022/02/22 10:57:36;;;;;;;207.93;79.87;;;;;;;;;;5059178;28;20446;-96
2022/02/22 11:00:04;;;;;;;197.53;73.37;;;;;;;;;;5065175;28;20486;-94
2022/02/22 11:02:31;;;;;;;215.17;75.10;;;;;;;;;;5060711;28;20485;-91
2022/02/22 11:04:58;;;;;;;203.67;74.10;;;;;;;;;;5061147;28;20461;-92
2022/02/22 11:07:26;;;;;;;262.20;81.43;;;;;;;;;;5060994;28;20492;-93
2022/02/22 11:09:53;;;;;;;201.63;70.07;;;;;;;;;;5058266;28;20961;-93
2022/02/22 11:12:24;;;;;;;195.67;71.10;;;;;;;;;;5061571;28;20446;-93
2022/02/22 11:14:51;;;;;;;189.73;68.27;;;;;;;;;;5055914;28;20475;-93
2022/02/22 11:17:18;;;;;;;213.77;69.37;;;;;;;;;;5052925;28;20447;-92
2022/02/22 11:19:46;;;;;;;438.83;106.22;;;;;;;;;;5061413;28;21261;-95
2022/02/22 11:22:15;;;;;;;443.65;99.70;;;;;;;;;;5062839;28;20294;-94
2022/02/22 11:24:45;;;;;;;416.27;100.32;;;;;;;;;;5060624;28;20208;-94
2022/02/22 11:27:11;;;;;;;127.50;56.67;;;;;;;;;;5058560;28;20220;-93
2022/02/22 11:29:41;;;;;;;131.37;60.20;;;;;;;;;;5060671;28;20475;-96
2022/02/22 11:32:09;;;;;;;129.90;59.27;;;;;;;;;;5060669;28;20453;-94
2022/02/22 11:34:36;;;;;;;128.67;58.00;;;;;;;;;;5061218;28;20450;-95
2022/02/22 11:37:03;;;;;;;148.70;57.70;;;;;;;;;;5061725;28;20438;-95
2022/02/22 11:39:33;;;;;;;141.63;60.30;;;;;;;;;;5059837;28;20438;-91
2022/02/22 11:42:00;;;;;;;149.50;60.30;;;;;;;;;;5061605;28;20438;-96
2022/02/22 11:44:28;;;;;;;146.90;59.30;;;;;;;;;;5061716;28;20478;-95
2022/02/22 11:46:57;;;;;;;147.35;58.65;;;;;;;;;;5061611;28;20497;-96
2022/02/22 11:49:25;;;;;;;154.27;60.87;;;;;;;;;;5061341;28;20187;-96
2022/02/22 11:51:53;;;;;;;145.33;58.80;;;;;;;;;;5062351;28;20464;-95
2022/02/22 11:54:21;;;;;;;149.80;58.70;;;;;;;;;;5057798;28;20844;-95
2022/02/22 11:56:49;;;;;;;147.30;59.37;;;;;;;;;;5062169;28;20451;-94
2022/02/22 11:59:19;;;;;;;148.30;59.33;;;;;;;;;;5063815;28;20450;-95
2022/02/22 12:01:46;;;;;;;145.20;58.80;;;;;;;;;;5062345;28;20439;-95
2022/02/22 12:04:24;;;;;;;152.23;58.40;;;;;;;;;;5062924;28;20457;-95
2022/02/22 12:06:53;;;;;;;;;;;;;;;;;;5057693;28;20307;-93
2022/02/22 12:09:19;;;;;;;;;;;;;;;;;;5063739;28;19925;-95
2022/02/22 12:11:45;;;;;;;;;;;;;;;;;;5063087;28;19947;-95
2022/02/22 12:14:12;;;;;;;;;;;;;;;;;;5059409;28;20690;-95
2022/02/22 12:16:38;;;;;;;;;;;;;;;;;;5057537;28;20243;-96
2022/02/22 12:19:05;;;;;;;;;;;;;;;;;;5060144;28;20384;-96
2022/02/22 12:21:34;;;;;;;;;;;;;;;;;;5061589;28;20389;-95
2022/02/22 12:24:00;;;;;;;;;;;;;;;;;;5061235;28;20128;-94
2022/02/22 12:26:26;;;;;;;;;;;;;;;;;;5062434;28;19970;-96
2022/02/22 12:28:52;;;;;;;;;;;;;;;;;;5061504;28;19920;-96
2022/02/22 12:31:19;;;;;;;;;;;;;;;;;;5061321;28;19948;-94
2022/02/22 12:33:45;;;;;;;;;;;;;;;;;;5061843;28;19925;-95
2022/02/22 12:36:11;;;;;;;;;;;;;;;;;;5062304;28;20462;-96
2022/02/22 12:38:38;;;;;;;;;;;;;;;;;;5060680;28;20699;-92
2022/02/22 12:41:04;;;;;;;;;;;;;;;;;;5063775;28;20282;-96
2022/02/22 12:43:30;;;;;;;;;;;;;;;;;;5058715;28;19920;-96
2022/02/22 12:45:56;;;;;;;;;;;;;;;;;;5060075;28;20297;-96
2022/02/22 12:48:26;;;;;;;104.63;51.40;;;;;;;;;;5060548;28;20542;-94
2022/02/22 12:50:53;;;;;;;103.97;50.57;;;;;;;;;;5059239;28;20207;-96
2022/02/22 12:53:24;;;;;;;106.07;51.50;;;;;;;;;;5060098;28;20480;-92
2022/02/22 12:55:50;;;;;;;99.27;49.53;;;;;;;;;;5060195;28;20447;-96
2022/02/22 12:58:17;;;;;;;103.00;51.60;;;;;;;;;;5060139;28;20443;-95
2022/02/22 13:00:43;;;;;;;100.20;50.70;;;;;;;;;;5060699;28;20442;-95
2022/02/22 13:03:12;;;;;;;102.10;51.20;;;;;;;;;;5060023;28;20784;-95
2022/02/22 13:05:45;;;;;;;102.90;51.50;;;;;;;;;;5059127;28;20466;-96
2022/02/22 13:08:31;;;;;;;101.27;50.33;;;;;;;;;;5066712;28;20493;-96
2022/02/22 13:10:59;;;;;;;97.97;49.03;;;;;;;;;;5073768;28;20450;-96
2022/02/22 13:13:28;;;;;;;101.37;50.53;;;;;;;;;;5065021;28;20446;-96
2022/02/22 13:15:55;;;;;;;102.47;51.30;;;;;;;;;;5066035;28;21220;-94
2022/02/22 13:18:23;;;;;;;105.37;53.00;;;;;;;;;;5062992;28;20481;-94
2022/02/22 13:20:51;;;;;;;102.00;51.60;;;;;;;;;;5063716;28;20453;-94
2022/02/22 13:23:29;;;;;;;108.70;52.30;;;;;;;;;;5062379;28;20442;-96
2022/02/22 13:25:57;;;;;;;148.50;60.23;;;;;;;;;;5061068;28;20450;-92
2022/02/22 13:28:30;;;;;;;144.27;58.50;;;;;;;;;;5064988;28;20526;-96
2022/02/22 13:30:56;;;;;;;141.60;56.43;;;;;;;;;;5066768;28;20466;-96
2022/02/22 13:33:27;;;;;;;137.27;55.80;;;;;;;;;;5066845;28;20443;-96
2022/02/22 13:36:06;;;;;;;146.80;55.60;;;;;;;;;;5064385;28;20461;-95
2022/02/22 13:38:32;;;;;;;147.60;60.30;;;;;;;;;;5063048;28;20487;-96
2022/02/22 13:41:06;;;;;;;140.30;55.73;;;;;;;;;;5063928;28;20502;-94
2022/02/22 13:43:33;;;;;;;138.67;56.00;;;;;;;;;;5052077;28;20443;-94
2022/02/22 13:46:00;;;;;;;146.53;56.33;;;;;;;;;;5044492;28;20455;-95
2022/02/22 13:48:29;;;;;;;144.53;57.47;;;;;;;;;;5056302;28;20493;-94
2022/02/22 13:51:04;;;;;;;137.53;55.50;;;;;;;;;;5067042;28;20481;-96
2022/02/22 13:53:30;;;;;;;145.67;57.10;;;;;;;;;;5057284;28;20470;-94
2022/02/22 13:55:59;;;;;;;144.73;56.67;;;;;;;;;;5064809;28;20443;-94
2022/02/22 13:58:28;;;;;;;129.50;54.93;;;;;;;;;;5065353;28;20467;-95
2022/02/22 14:00:59;;;;;;;156.45;59.58;;;;;;;;;;5066082;28;20447;-96
2022/02/22 14:06:08;;;;;;;343.23;70.97;;;;;;;;;;5070320;28;20442;-95
2022/02/22 14:08:34;;;;;;;176.07;60.08;;;;;;;;;;5060812;28;20227;-93
2022/02/22 14:11:02;;;;;;;183.73;60.53;;;;;;;;;;5064743;28;20196;-95
2022/02/22 14:13:42;;;;;;;194.45;59.45;;;;;;;;;;5065727;28;20192;-96
2022/02/22 14:16:08;;;;;;;195.68;61.85;;;;;;;;;;5064413;28;20184;-90